createdAt,value
2023-05-10T00:00:16.908Z,68.05
2023-05-10T00:02:46.661Z,69.82
2023-05-10T00:05:14.561Z,67.90
2023-05-10T00:07:45.624Z,47.70
2023-05-10T00:10:14.023Z,74.78
2023-05-10T00:12:43.371Z,110.50
2023-05-10T00:15:11.779Z,89.78
2023-05-10T00:17:40.461Z,71.53
2023-05-10T00:20:11.820Z,91.38
2023-05-10T00:22:39.763Z,99.22
2023-05-10T00:25:10.197Z,64.32
2023-05-10T00:27:38.157Z,45.05
2023-05-10T00:30:08.405Z,85.40
2023-05-10T00:32:36.878Z,36.10
2023-05-10T00:35:05.988Z,43.43
2023-05-10T00:37:35.785Z,44.90
2023-05-10T00:40:04.151Z,51.58
2023-05-10T00:42:32.072Z,46.83
2023-05-10T00:44:59.858Z,54.35
2023-05-10T00:47:28.670Z,29.83
2023-05-10T00:49:58.289Z,17.42
2023-05-10T00:52:27.659Z,13.13
2023-05-10T00:54:58.052Z,19.60
2023-05-10T00:57:26.052Z,20.65
2023-05-10T00:59:54.395Z,24.20
2023-05-10T01:02:22.452Z,21.17
2023-05-10T01:04:51.097Z,14.40
2023-05-10T01:07:19.294Z,15.65
2023-05-10T01:09:47.634Z,15.37
2023-05-10T01:12:16.988Z,10.23
2023-05-10T01:14:47.517Z,10.07
2023-05-10T01:17:17.146Z,11.63
2023-05-10T01:19:45.278Z,12.98
2023-05-10T01:22:54.169Z,10.63
2023-05-10T01:25:50.501Z,13.07
2023-05-10T01:31:31.774Z,8.00
2023-05-10T01:34:09.949Z,8.43
2023-05-10T01:36:48.975Z,8.83
2023-05-10T01:39:25.486Z,7.80
2023-05-10T01:42:04.380Z,3.57
2023-05-10T01:44:39.892Z,7.67
2023-05-10T01:47:13.227Z,9.03
2023-05-10T01:49:50.418Z,8.77
2023-05-10T01:52:23.280Z,9.57
2023-05-10T01:55:00.460Z,13.33
2023-05-10T01:57:36.199Z,8.77
2023-05-10T02:00:07.371Z,8.70
2023-05-10T02:02:46.894Z,10.90
2023-05-10T02:05:19.304Z,11.03
2023-05-10T02:07:48.608Z,12.30
2023-05-10T02:10:18.641Z,11.23
2023-05-10T02:12:52.024Z,13.43
2023-05-10T02:15:25.631Z,15.43
2023-05-10T02:17:56.820Z,18.80
2023-05-10T02:20:27.842Z,16.47
2023-05-10T02:22:58.677Z,15.33
2023-05-10T02:25:29.032Z,22.07
2023-05-10T02:28:01.416Z,14.03
2023-05-10T02:30:32.158Z,18.50
2023-05-10T02:33:01.603Z,22.60
2023-05-10T02:35:34.343Z,22.70
2023-05-10T02:38:05.814Z,30.88
2023-05-10T02:40:35.551Z,29.10
2023-05-10T02:43:06.576Z,29.03
2023-05-10T02:45:37.522Z,23.77
2023-05-10T02:48:06.622Z,27.77
2023-05-10T02:50:40.431Z,30.23
2023-05-10T02:53:32.254Z,27.80
2023-05-10T02:56:08.150Z,30.25
2023-05-10T02:58:36.525Z,26.42
2023-05-10T03:01:05.021Z,32.30
2023-05-10T03:03:33.052Z,32.47
2023-05-10T03:06:02.685Z,31.07
2023-05-10T03:08:31.233Z,38.80
2023-05-10T03:11:38.321Z,28.53
2023-05-10T03:14:22.233Z,32.77
2023-05-10T03:17:05.248Z,33.53
2023-05-10T03:19:55.556Z,34.07
2023-05-10T03:22:33.138Z,26.57
2023-05-10T03:25:07.038Z,29.80
2023-05-10T03:27:39.898Z,34.17
2023-05-10T03:30:11.361Z,38.00
2023-05-10T03:32:40.422Z,30.33
2023-05-10T03:35:09.593Z,33.83
2023-05-10T03:37:40.533Z,38.97
2023-05-10T03:40:11.105Z,38.40
2023-05-10T03:42:41.520Z,32.43
2023-05-10T03:45:11.002Z,30.13
2023-05-10T03:47:39.008Z,32.40
2023-05-10T03:50:09.026Z,27.47
2023-05-10T03:52:37.401Z,33.57
2023-05-10T03:55:08.789Z,32.33
2023-05-10T03:57:37.046Z,33.80
2023-05-10T04:00:06.437Z,21.70
2023-05-10T04:02:43.218Z,41.77
2023-05-10T04:05:18.754Z,28.35
2023-05-10T04:07:48.269Z,29.90
2023-05-10T04:10:18.708Z,30.90
2023-05-10T04:12:47.527Z,38.60
2023-05-10T04:15:15.477Z,39.77
2023-05-10T04:17:43.610Z,59.23
2023-05-10T04:20:12.950Z,38.63
2023-05-10T04:22:41.971Z,42.00
2023-05-10T04:25:10.513Z,35.53
2023-05-10T04:27:39.852Z,33.93
2023-05-10T04:30:09.306Z,37.67
2023-05-10T04:32:38.713Z,46.27
2023-05-10T04:35:08.173Z,51.37
2023-05-10T04:37:37.620Z,63.57
2023-05-10T04:40:07.512Z,44.03
2023-05-10T04:42:35.424Z,36.40
2023-05-10T04:45:06.146Z,42.37
2023-05-10T04:47:34.078Z,51.67
2023-05-10T04:50:02.035Z,50.77
2023-05-10T04:52:30.157Z,44.00
2023-05-10T04:54:57.945Z,57.87
2023-05-10T04:57:25.814Z,55.73
2023-05-10T04:59:53.795Z,53.67
2023-05-10T05:02:23.195Z,53.60
2023-05-10T05:04:51.010Z,57.23
2023-05-10T05:07:18.866Z,60.23
2023-05-10T05:09:46.735Z,68.90
2023-05-10T05:12:15.304Z,66.30
2023-05-10T05:14:44.704Z,98.50
2023-05-10T05:17:12.653Z,63.22
2023-05-10T05:19:41.722Z,84.13
2023-05-10T05:22:09.684Z,67.13
2023-05-10T05:24:40.862Z,74.93
2023-05-10T05:27:08.799Z,85.93
2023-05-10T05:29:36.634Z,74.23
2023-05-10T05:32:07.512Z,89.47
2023-05-10T05:34:35.528Z,94.77
2023-05-10T05:37:04.980Z,106.45
2023-05-10T05:39:34.541Z,89.03
2023-05-10T05:42:02.323Z,96.38
2023-05-10T05:44:32.698Z,117.43
2023-05-10T05:47:00.530Z,110.30
2023-05-10T05:49:28.413Z,105.53
2023-05-10T05:52:04.137Z,114.93
2023-05-10T05:54:36.775Z,105.03
2023-05-10T05:57:06.595Z,113.22
2023-05-10T05:59:34.652Z,102.00
2023-05-10T06:02:02.630Z,107.30
2023-05-10T06:04:30.734Z,120.55
2023-05-10T06:06:58.823Z,110.50
2023-05-10T06:09:27.326Z,160.60
2023-05-10T06:11:58.443Z,119.78
2023-05-10T06:14:26.512Z,119.93
2023-05-10T06:16:54.570Z,124.45
2023-05-10T06:19:24.077Z,135.55
2023-05-10T06:21:53.822Z,145.90
2023-05-10T06:24:22.878Z,142.90
2023-05-10T06:26:51.676Z,125.40
2023-05-10T06:29:21.171Z,117.75
2023-05-10T06:31:49.341Z,153.27
2023-05-10T06:34:17.373Z,113.22
2023-05-10T06:36:46.249Z,141.30
2023-05-10T06:39:14.224Z,109.55
2023-05-10T06:41:43.772Z,101.22
2023-05-10T06:44:11.742Z,102.68
2023-05-10T06:49:10.946Z,112.65
2023-05-10T06:51:38.743Z,110.45
2023-05-10T06:54:06.911Z,114.15
2023-05-10T06:56:35.647Z,112.90
2023-05-10T06:59:03.928Z,120.40
2023-05-10T07:01:33.288Z,118.97
2023-05-10T07:04:02.547Z,109.60
2023-05-10T07:06:33.948Z,123.00
2023-05-10T07:09:02.243Z,115.55
2023-05-10T07:11:30.026Z,112.88
2023-05-10T07:13:57.992Z,105.35
2023-05-10T07:16:25.954Z,92.53
2023-05-10T07:18:54.475Z,101.97
2023-05-10T07:21:29.613Z,91.38
2023-05-10T07:26:33.157Z,83.10
2023-05-10T07:29:11.243Z,94.43
2023-05-10T07:31:39.814Z,85.32
2023-05-10T07:34:08.184Z,78.30
2023-05-10T07:36:39.829Z,74.72
2023-05-10T07:39:08.618Z,69.78
2023-05-10T07:41:38.645Z,68.68
2023-05-10T07:44:07.265Z,74.28
2023-05-10T07:46:35.146Z,69.28
2023-05-10T07:49:03.135Z,73.63
2023-05-10T07:51:30.968Z,73.57
2023-05-10T07:54:00.302Z,65.97
2023-05-10T07:56:30.613Z,55.13
2023-05-10T07:58:59.233Z,57.15
2023-05-10T08:01:30.827Z,63.42
2023-05-10T08:03:58.876Z,52.95
2023-05-10T08:06:31.122Z,58.75
2023-05-10T08:09:00.913Z,50.35
2023-05-10T08:11:28.839Z,49.47
2023-05-10T08:13:56.863Z,58.75
2023-05-10T08:16:25.559Z,52.00
2023-05-10T08:18:56.252Z,44.25
2023-05-10T08:21:24.649Z,42.78
2023-05-10T08:23:52.732Z,41.15
2023-05-10T08:26:22.684Z,40.03
2023-05-10T08:28:50.887Z,37.42
2023-05-10T08:31:19.273Z,37.97
2023-05-10T08:33:47.386Z,38.08
2023-05-10T08:36:20.674Z,41.53
2023-05-10T08:38:52.092Z,34.53
2023-05-10T08:41:24.964Z,36.15
2023-05-10T08:43:54.586Z,35.88
2023-05-10T08:46:23.889Z,35.42
2023-05-10T08:48:53.258Z,37.95
2023-05-10T08:51:28.804Z,35.95
2023-05-10T08:53:57.294Z,32.45
2023-05-10T08:56:27.170Z,31.52
2023-05-10T08:58:55.994Z,31.65
2023-05-10T09:01:26.426Z,33.72
2023-05-10T09:03:54.804Z,33.15
2023-05-10T09:06:23.432Z,33.58
2023-05-10T09:08:51.822Z,30.63
2023-05-10T09:11:21.986Z,31.33
2023-05-10T09:13:53.465Z,31.50
2023-05-10T09:16:22.547Z,30.23
2023-05-10T09:18:51.144Z,30.88
2023-05-10T09:21:21.707Z,30.08
2023-05-10T09:23:51.146Z,27.90
2023-05-10T09:26:24.015Z,25.90
2023-05-10T09:28:58.187Z,29.77
2023-05-10T09:31:46.180Z,27.55
2023-05-10T09:34:18.905Z,28.92
2023-05-10T09:36:55.857Z,31.25
2023-05-10T09:39:33.012Z,30.48
2023-05-10T09:42:04.898Z,29.67
2023-05-10T09:44:35.970Z,27.92
2023-05-10T09:47:04.805Z,30.98
2023-05-10T09:49:34.279Z,30.98
2023-05-10T09:52:04.189Z,30.23
2023-05-10T09:54:33.030Z,27.90
2023-05-10T09:57:01.935Z,26.38
2023-05-10T09:59:31.154Z,25.30
2023-05-10T10:02:01.575Z,27.17
2023-05-10T10:04:31.307Z,28.95
2023-05-10T10:07:01.664Z,28.63
2023-05-10T10:09:29.789Z,23.45
2023-05-10T10:11:58.606Z,28.13
2023-05-10T10:14:27.041Z,27.50
2023-05-10T10:17:07.397Z,25.20
2023-05-10T10:19:38.305Z,22.75
2023-05-10T10:22:09.291Z,26.80
2023-05-10T10:24:37.646Z,23.75
2023-05-10T10:27:24.575Z,28.73
2023-05-10T10:30:10.398Z,25.13
2023-05-10T10:33:16.533Z,25.58
2023-05-10T10:36:00.213Z,24.60
2023-05-10T10:38:40.208Z,27.20
2023-05-10T10:41:28.761Z,29.15
2023-05-10T10:44:39.229Z,26.05
2023-05-10T10:47:25.406Z,21.88
2023-05-10T10:50:05.724Z,23.90
2023-05-10T10:52:37.975Z,25.00
2023-05-10T10:55:11.660Z,23.48
2023-05-10T10:57:49.631Z,21.77
2023-05-10T11:00:27.705Z,23.25
2023-05-10T11:03:00.454Z,21.30
2023-05-10T11:05:42.697Z,22.90
2023-05-10T11:08:17.432Z,25.17
2023-05-10T11:11:08.232Z,23.17
2023-05-10T11:13:41.543Z,23.65
2023-05-10T11:16:17.712Z,22.38
2023-05-10T11:19:03.094Z,20.35
2023-05-10T11:21:32.530Z,21.83
2023-05-10T11:24:16.878Z,22.92
2023-05-10T11:26:45.711Z,23.95
2023-05-10T11:29:22.244Z,20.05
2023-05-10T11:31:52.787Z,24.02
2023-05-10T11:34:27.757Z,23.83
2023-05-10T11:36:57.419Z,22.35
2023-05-10T11:39:31.356Z,23.33
2023-05-10T11:42:01.564Z,22.00
2023-05-10T11:44:31.512Z,20.67
2023-05-10T11:47:00.697Z,23.98
2023-05-10T11:49:29.368Z,21.33
2023-05-10T11:52:06.445Z,20.75
2023-05-10T11:54:36.335Z,20.55
2023-05-10T11:57:07.298Z,21.08
2023-05-10T11:59:37.531Z,21.40
2023-05-10T12:02:06.025Z,19.80
2023-05-10T12:04:34.553Z,20.75
2023-05-10T12:07:03.227Z,19.20
2023-05-10T12:09:42.767Z,18.13
2023-05-10T12:12:17.894Z,16.92
2023-05-10T12:14:51.300Z,18.65
2023-05-10T12:17:19.131Z,15.32
2023-05-10T12:19:49.177Z,15.98
2023-05-10T12:22:22.250Z,14.80
2023-05-10T12:24:51.783Z,16.65
2023-05-10T12:27:21.645Z,14.65
2023-05-10T12:29:51.602Z,16.20
2023-05-10T12:32:19.556Z,14.13
2023-05-10T12:34:48.531Z,13.32
2023-05-10T12:37:16.460Z,16.55
2023-05-10T12:39:46.942Z,16.00
2023-05-10T12:42:15.394Z,17.05
2023-05-10T12:44:46.178Z,16.90
2023-05-10T12:47:14.506Z,19.05
2023-05-10T12:49:42.394Z,17.63
2023-05-10T12:52:10.850Z,17.67
2023-05-10T12:54:39.892Z,21.45
2023-05-10T12:57:07.765Z,21.15
2023-05-10T12:59:37.442Z,18.45
2023-05-10T13:02:08.513Z,17.63
2023-05-10T13:04:40.349Z,17.38
2023-05-10T13:07:08.541Z,17.55
2023-05-10T13:09:36.691Z,19.98
2023-05-10T13:12:05.888Z,19.15
2023-05-10T13:14:34.202Z,20.35
2023-05-10T13:17:02.315Z,20.77
2023-05-10T13:19:31.493Z,20.83
2023-05-10T13:21:59.779Z,18.00
2023-05-10T13:24:28.078Z,16.55
2023-05-10T13:26:57.145Z,14.73
2023-05-10T13:29:25.300Z,15.10
2023-05-10T13:31:53.340Z,16.02
2023-05-10T13:34:21.487Z,15.82
2023-05-10T13:36:51.649Z,14.20
2023-05-10T13:39:19.560Z,12.70
2023-05-10T13:41:48.393Z,13.38
2023-05-10T13:44:16.725Z,14.10
2023-05-10T13:46:44.730Z,15.85
2023-05-10T13:49:13.155Z,16.50
2023-05-10T13:51:40.981Z,17.05
2023-05-10T13:54:12.047Z,17.15
2023-05-10T13:56:43.469Z,18.48
2023-05-10T13:59:11.701Z,20.75
2023-05-10T14:01:39.705Z,18.85
2023-05-10T14:04:12.017Z,17.20
2023-05-10T14:06:42.174Z,20.13
2023-05-10T14:09:12.397Z,19.98
2023-05-10T14:11:44.103Z,20.10
2023-05-10T14:14:12.439Z,19.45
2023-05-10T14:16:45.026Z,20.08
2023-05-10T14:19:13.302Z,19.27
2023-05-10T14:21:41.210Z,21.52
2023-05-10T14:24:09.090Z,19.70
2023-05-10T14:26:39.248Z,17.45
2023-05-10T14:29:09.327Z,19.90
2023-05-10T14:31:38.774Z,17.30
2023-05-10T14:34:07.015Z,20.65
2023-05-10T14:36:34.920Z,19.42
2023-05-10T14:39:03.802Z,17.88
2023-05-10T14:41:32.167Z,17.83
2023-05-10T14:44:01.520Z,19.25
2023-05-10T14:46:31.050Z,18.00
2023-05-10T14:48:59.109Z,18.88
2023-05-10T14:51:28.426Z,16.13
2023-05-10T14:53:57.416Z,18.40
2023-05-10T14:56:26.652Z,19.30
2023-05-10T14:58:54.710Z,19.02
2023-05-10T15:01:24.933Z,14.20
2023-05-10T15:03:53.236Z,13.75
2023-05-10T15:06:26.244Z,11.70
2023-05-10T15:08:54.155Z,12.80
2023-05-10T15:11:22.801Z,11.25
2023-05-10T15:13:51.126Z,13.68
2023-05-10T15:16:18.968Z,14.32
2023-05-10T15:18:49.342Z,13.48
2023-05-10T15:21:18.409Z,16.50
2023-05-10T15:23:47.713Z,14.50
2023-05-10T15:26:19.275Z,14.73
2023-05-10T15:28:49.730Z,14.60
2023-05-10T15:31:17.612Z,14.75
2023-05-10T15:33:45.478Z,15.15
2023-05-10T15:36:14.657Z,14.70
2023-05-10T15:38:42.607Z,14.93
2023-05-10T15:41:10.806Z,14.90
2023-05-10T15:43:38.672Z,13.50
2023-05-10T15:46:07.262Z,15.65
2023-05-10T15:48:35.245Z,15.85
2023-05-10T15:51:03.571Z,14.05
2023-05-10T15:53:34.473Z,14.98
2023-05-10T15:56:02.388Z,14.52
2023-05-10T15:58:31.546Z,13.77
2023-05-10T16:00:59.480Z,15.70
2023-05-10T16:03:27.519Z,14.60
2023-05-10T16:05:55.384Z,14.70
2023-05-10T16:08:23.483Z,15.40
2023-05-10T16:10:53.386Z,15.38
2023-05-10T16:13:21.569Z,15.90
2023-05-10T16:15:49.729Z,17.10
2023-05-10T16:18:18.184Z,14.13
2023-05-10T16:20:46.822Z,14.35
2023-05-10T16:23:15.251Z,15.15
2023-05-10T16:25:43.326Z,15.02
2023-05-10T16:28:12.494Z,14.30
2023-05-10T16:30:44.944Z,14.70
2023-05-10T16:33:14.502Z,15.20
2023-05-10T16:35:42.387Z,19.80
2023-05-10T16:38:10.183Z,15.75
2023-05-10T16:40:40.120Z,15.63
2023-05-10T16:43:09.351Z,17.65
2023-05-10T16:45:40.997Z,16.20
2023-05-10T16:48:10.256Z,18.23
2023-05-10T16:50:38.593Z,17.55
2023-05-10T16:53:06.778Z,14.80
2023-05-10T16:55:38.508Z,16.65
2023-05-10T16:58:06.874Z,14.45
2023-05-10T17:00:35.254Z,13.15
2023-05-10T17:03:05.019Z,14.50
2023-05-10T17:05:32.869Z,14.18
2023-05-10T17:08:00.915Z,15.38
2023-05-10T17:10:29.175Z,14.52
2023-05-10T17:12:57.186Z,15.85
2023-05-10T17:15:25.335Z,14.40
2023-05-10T17:17:55.206Z,15.07
2023-05-10T17:20:24.509Z,15.52
2023-05-10T17:22:52.640Z,15.70
2023-05-10T17:25:20.615Z,13.88
2023-05-10T17:27:48.581Z,14.10
2023-05-10T17:30:17.288Z,14.73
2023-05-10T17:32:48.762Z,14.88
2023-05-10T17:35:17.071Z,14.60
2023-05-10T17:37:46.730Z,15.32
2023-05-10T17:40:15.003Z,15.77
2023-05-10T17:42:42.988Z,16.25
2023-05-10T17:45:11.961Z,14.68
2023-05-10T17:47:43.418Z,13.98
2023-05-10T17:50:11.476Z,13.10
2023-05-10T17:52:39.541Z,12.68
2023-05-10T17:55:11.900Z,15.50
2023-05-10T17:57:40.609Z,12.95
2023-05-10T18:00:10.118Z,14.25
2023-05-10T18:02:38.789Z,13.07
2023-05-10T18:05:07.917Z,13.32
2023-05-10T18:07:36.178Z,11.32
2023-05-10T18:10:04.835Z,13.80
2023-05-10T18:12:35.196Z,11.23
2023-05-10T18:15:03.338Z,10.43
2023-05-10T18:17:31.172Z,10.95
2023-05-10T18:19:59.171Z,11.80
2023-05-10T18:22:27.259Z,12.35
2023-05-10T18:24:55.642Z,12.43
2023-05-10T18:27:23.569Z,11.38
2023-05-10T18:29:53.164Z,9.48
2023-05-10T18:32:32.514Z,9.88
2023-05-10T18:35:00.600Z,9.27
2023-05-10T18:37:28.421Z,10.88
2023-05-10T18:39:57.679Z,9.82
2023-05-10T18:42:26.901Z,9.70
2023-05-10T18:44:57.536Z,10.65
2023-05-10T18:47:26.785Z,9.25
2023-05-10T18:49:55.371Z,10.15
2023-05-10T18:52:23.293Z,10.10
2023-05-10T18:54:51.936Z,9.25
2023-05-10T18:57:21.173Z,9.60
2023-05-10T18:59:49.435Z,9.95
2023-05-10T19:02:18.863Z,8.57
2023-05-10T19:04:48.570Z,11.38
2023-05-10T19:07:16.575Z,10.57
2023-05-10T19:09:44.455Z,9.75
2023-05-10T19:12:12.211Z,9.43
2023-05-10T19:14:40.592Z,10.05
2023-05-10T19:19:57.663Z,9.77
2023-05-10T19:22:43.561Z,8.80
2023-05-10T19:25:19.654Z,8.98
2023-05-10T19:27:52.667Z,10.00
2023-05-10T19:30:21.182Z,9.40
2023-05-10T19:32:49.286Z,9.68
2023-05-10T19:35:20.175Z,9.20
2023-05-10T19:37:49.318Z,8.85
2023-05-10T19:40:18.493Z,11.60
2023-05-10T19:42:46.645Z,11.57
2023-05-10T19:45:15.954Z,9.38
2023-05-10T19:47:44.219Z,9.45
2023-05-10T19:50:14.000Z,9.68
2023-05-10T19:52:43.906Z,9.98
2023-05-10T19:55:25.291Z,10.35
2023-05-10T19:57:53.506Z,12.05
2023-05-10T20:00:21.721Z,10.32
2023-05-10T20:02:50.271Z,10.40
2023-05-10T20:05:18.406Z,11.68
2023-05-10T20:07:47.892Z,8.90
2023-05-10T20:10:16.668Z,10.43
2023-05-10T20:12:52.459Z,10.90
2023-05-10T20:15:23.129Z,10.55
2023-05-10T20:17:52.905Z,13.25
2023-05-10T20:20:21.837Z,10.88
2023-05-10T20:22:51.837Z,10.15
2023-05-10T20:25:19.828Z,10.73
2023-05-10T20:27:47.693Z,11.45
2023-05-10T20:30:16.218Z,10.90
2023-05-10T20:32:48.119Z,11.55
2023-05-10T20:35:16.147Z,12.85
2023-05-10T20:37:44.041Z,12.00
2023-05-10T20:40:13.860Z,10.13
2023-05-10T20:42:41.978Z,11.25
2023-05-10T20:45:12.016Z,11.80
2023-05-10T20:47:39.930Z,12.00
2023-05-10T20:50:08.798Z,14.55
2023-05-10T20:52:36.703Z,17.40
2023-05-10T20:55:06.161Z,24.13
2023-05-10T20:57:36.432Z,20.67
2023-05-10T21:00:05.611Z,35.42
2023-05-10T21:02:33.615Z,37.30
2023-05-10T21:05:01.963Z,48.05
2023-05-10T21:07:32.376Z,49.00
2023-05-10T21:10:00.291Z,54.37
2023-05-10T21:12:31.959Z,51.13
2023-05-10T21:15:01.540Z,52.75
2023-05-10T21:17:29.392Z,53.17
2023-05-10T21:19:57.212Z,50.22
2023-05-10T21:22:25.398Z,53.70
2023-05-10T21:24:53.706Z,68.80
2023-05-10T21:27:21.954Z,64.00
2023-05-10T21:29:50.015Z,59.57
2023-05-10T21:32:20.243Z,65.23
2023-05-10T21:34:48.072Z,58.47
2023-05-10T21:37:17.437Z,72.17
2023-05-10T21:39:46.616Z,63.03
2023-05-10T21:42:14.532Z,59.85
2023-05-10T21:44:43.228Z,51.27
2023-05-10T21:47:11.132Z,69.97
2023-05-10T21:49:40.445Z,55.57
2023-05-10T21:52:08.661Z,55.67
2023-05-10T21:54:40.787Z,65.17
2023-05-10T21:57:08.657Z,66.35
2023-05-10T21:59:36.769Z,53.80
2023-05-10T22:02:04.803Z,61.47
2023-05-10T22:04:32.726Z,65.23
2023-05-10T22:07:02.366Z,64.70
2023-05-10T22:09:30.386Z,68.50
2023-05-10T22:11:58.324Z,68.90
2023-05-10T22:14:26.174Z,69.87
2023-05-10T22:16:54.017Z,63.23
2023-05-10T22:19:24.538Z,72.00
2023-05-10T22:21:53.192Z,69.27
2023-05-10T22:24:24.632Z,67.27
2023-05-10T22:26:54.142Z,74.30
2023-05-10T22:29:23.822Z,78.33
2023-05-10T22:31:51.683Z,73.07
2023-05-10T22:34:20.015Z,73.97
2023-05-10T22:36:50.723Z,83.63
2023-05-10T22:39:18.533Z,76.70
2023-05-10T22:41:47.867Z,85.77
2023-05-10T22:44:16.137Z,65.37
2023-05-10T22:46:44.000Z,64.50
2023-05-10T22:49:13.244Z,66.10
2023-05-10T22:51:41.108Z,99.47
2023-05-10T22:54:08.866Z,147.37
2023-05-10T22:56:36.775Z,172.82
2023-05-10T22:59:06.045Z,115.13
2023-05-10T23:01:34.117Z,194.90
2023-05-10T23:04:01.932Z,177.52
2023-05-10T23:06:29.812Z,187.95
2023-05-10T23:08:57.609Z,140.60
2023-05-10T23:11:25.527Z,130.13
2023-05-10T23:13:53.235Z,115.87
2023-05-10T23:16:22.538Z,108.57
2023-05-10T23:18:50.501Z,98.83
2023-05-10T23:21:18.449Z,109.37
2023-05-10T23:23:46.290Z,115.17
2023-05-10T23:26:14.325Z,153.13
2023-05-10T23:28:42.367Z,130.77
2023-05-10T23:31:10.548Z,119.53
2023-05-10T23:33:39.930Z,171.47
2023-05-10T23:36:08.777Z,131.57
2023-05-10T23:38:38.343Z,195.83
2023-05-10T23:41:06.195Z,138.47
2023-05-10T23:43:34.030Z,97.70
2023-05-10T23:46:01.947Z,104.30
2023-05-10T23:48:29.989Z,92.10
2023-05-10T23:51:00.221Z,87.93
2023-05-10T23:53:28.434Z,93.93
2023-05-10T23:55:56.530Z,139.97
2023-05-10T23:58:24.423Z,138.67
